Terminal Aerodrome Forecast
Issued by NWS

Home | Current Version | Previous Version | Graphics & Text | Print | Product List | Glossary On
Versions: 1 2 3 4 5 6 7 8 9 10 11 12 13 14 15 16 17 18 19 20
229
FTUS43 KICT 160520
TAFCNU
TAF
KCNU 160520Z 1606/1706 12006KT P6SM SCT025 BKN200
      TEMPO 1608/1612 BKN020
     FM161300 18011KT P6SM OVC015
     FM161700 20011KT P6SM SCT030
     FM162300 19012KT P6SM VCTS BKN040CB=

USA.gov is the U.S. government's official web portal to all federal, state and local government web resources and services.